Pagrindinis puslapis
METAR-TAF:

METAR-TAF

Oro uostai :

Čiangmajus, Tailandas

platuma: 18-47N, ilguma: 098-59E, Aukštis: 312 m

Dabartinis oras

Ataskaita buvo paskelbta 14 minutes, ne 17:30 UTC
Vėjas 5 kt iš Pietų/Pietvakarių, svyruoja nuo Pietų/Pietryčių ir Vakarų/Pietvakarių
Temperatūra 27°C
Drėgmė 42%
Slėgis 1008 hPa
Matomumas: 9000 m

METAR: VTCC 311730Z 20005KT 160V240 9000 NSC 27/13 Q1008 NOSIG

Laikas: 00:44 (17:44 UTC)

Prognozė

Ataskaita buvo paskelbta 6 valandos ir 44 minutes, ne 11:00 UTC
Prognozė galioja nuo 31 metu 12 UTC su 01 metu 18 UTC
Vėjas 4 kt iš Vakarų/Šiaurės Vakarų
Matomumas: 9000 m
Tapsmas
nuo 31 metu 21 UTC su 31 metu 23 UTC
Matomumas: 3000 m
migla
Tapsmas
nuo 01 metu 01 UTC su 01 metu 03 UTC
Vėjas 4 kt iš Pietų/Pietryčių
Matomumas: 8000 m

TAF: VTCC 311100Z 3112/0118 30004KT 9000 NSC BECMG 3121/3123 3000 HZ BECMG 0101/0103 16004KT 8000 NSW

Orai ataskaitas ir orų prognozės (METAR, TAF).

turimą stotys yra geltonos ir raudonos taškus žemėlapyje.

Perkelti pele per norėdami pamatyti stoties vardą.

Tada spustelėkite, norėdami matyti oro stebėjimo ir prognozės.

Norėdami pakeisti žemėlapį: spustelėkite ant žalios mygtukų su juodo kryžiaus žemyn,; žalią mygtuką su brūkšneliu, jei norite nutolinti; arba žalių rodyklių gretimoms žemėlapius.


METAR-TAF: